createdAt,value
2023-08-17T00:03:50.302Z,23.73
2023-08-17T00:08:54.548Z,23.79
2023-08-17T00:13:59.242Z,23.82
2023-08-17T00:19:03.484Z,23.82
2023-08-17T00:24:08.330Z,23.77
2023-08-17T00:29:12.586Z,23.68
2023-08-17T00:34:16.918Z,23.67
2023-08-17T00:39:21.384Z,23.66
2023-08-17T00:44:25.820Z,23.56
2023-08-17T00:49:30.527Z,23.47
2023-08-17T00:54:34.895Z,23.47
2023-08-17T00:59:40.436Z,23.38
2023-08-17T01:04:45.029Z,23.27
2023-08-17T01:09:49.232Z,23.15
2023-08-17T01:14:56.071Z,23.08
2023-08-17T01:20:01.761Z,23.09
2023-08-17T01:25:06.383Z,23.09
2023-08-17T01:30:14.586Z,23.11
2023-08-17T01:35:22.754Z,23.15
2023-08-17T01:40:27.815Z,23.20
2023-08-17T01:45:31.994Z,23.19
2023-08-17T01:50:36.293Z,23.23
2023-08-17T01:55:40.340Z,23.24
2023-08-17T02:00:45.235Z,23.18
2023-08-17T02:05:49.301Z,23.11
2023-08-17T02:10:53.579Z,23.02
2023-08-17T02:15:59.721Z,22.99
2023-08-17T02:21:04.445Z,23.04
2023-08-17T02:26:09.627Z,23.09
2023-08-17T02:31:14.076Z,23.14
2023-08-17T02:36:18.365Z,23.18
2023-08-17T02:41:22.755Z,23.20
2023-08-17T02:46:26.833Z,23.19
2023-08-17T02:51:31.135Z,23.17
2023-08-17T02:56:35.316Z,23.15
2023-08-17T03:01:40.010Z,23.11
2023-08-17T03:06:44.238Z,23.08
2023-08-17T03:11:48.592Z,23.05
2023-08-17T03:16:52.667Z,23.01
2023-08-17T03:21:57.780Z,22.94
2023-08-17T03:27:02.249Z,22.88
2023-08-17T03:32:06.830Z,22.76
2023-08-17T03:37:11.362Z,22.63
2023-08-17T03:42:15.738Z,22.52
2023-08-17T03:47:20.238Z,22.51
2023-08-17T03:52:24.532Z,22.61
2023-08-17T03:57:28.989Z,22.69
2023-08-17T04:02:33.535Z,22.78
2023-08-17T04:07:38.122Z,22.88
2023-08-17T04:12:42.335Z,22.97
2023-08-17T04:17:46.483Z,23.00
2023-08-17T04:22:51.349Z,23.00
2023-08-17T04:27:55.616Z,23.03
2023-08-17T04:33:00.874Z,23.08
2023-08-17T04:38:05.734Z,23.14
2023-08-17T04:43:11.228Z,23.27
2023-08-17T04:48:16.213Z,23.52
2023-08-17T04:53:21.002Z,23.86
2023-08-17T04:58:25.231Z,24.43
2023-08-17T05:03:33.646Z,25.37
2023-08-17T05:08:41.346Z,26.37
2023-08-17T05:13:45.700Z,27.16
2023-08-17T05:18:50.104Z,27.54
2023-08-17T05:23:54.677Z,27.47
2023-08-17T05:28:59.104Z,27.31
2023-08-17T05:34:03.890Z,26.89
2023-08-17T05:39:08.873Z,26.54
2023-08-17T05:44:14.952Z,26.13
2023-08-17T05:49:19.776Z,25.88
2023-08-17T05:54:23.908Z,25.66
2023-08-17T05:59:29.517Z,25.53
2023-08-17T06:04:34.508Z,25.52
2023-08-17T06:09:38.537Z,25.57
2023-08-17T06:14:43.602Z,25.66
2023-08-17T06:19:48.180Z,25.90
2023-08-17T06:24:52.461Z,26.45
2023-08-17T06:29:56.698Z,27.13
2023-08-17T06:35:00.780Z,27.73
2023-08-17T06:40:06.626Z,28.16
2023-08-17T06:45:11.310Z,28.54
2023-08-17T06:50:15.375Z,28.94
2023-08-17T06:55:19.698Z,29.28
2023-08-17T07:00:23.869Z,29.39
2023-08-17T07:05:27.897Z,29.75
2023-08-17T07:10:31.888Z,30.57
2023-08-17T07:15:36.409Z,31.29
2023-08-17T07:20:40.841Z,31.98
2023-08-17T07:25:45.474Z,33.39
2023-08-17T07:30:49.570Z,36.02
2023-08-17T07:35:55.572Z,38.14
2023-08-17T07:40:59.747Z,38.46
2023-08-17T07:46:03.910Z,37.47
2023-08-17T07:51:08.011Z,36.29
2023-08-17T07:56:12.335Z,34.99
2023-08-17T08:01:16.474Z,33.80
2023-08-17T08:06:21.756Z,32.93
2023-08-17T08:11:26.220Z,32.24
2023-08-17T08:16:32.961Z,31.74
2023-08-17T08:21:37.132Z,31.44
2023-08-17T08:26:41.297Z,31.37
2023-08-17T08:31:45.572Z,31.62
2023-08-17T08:36:49.874Z,32.50
2023-08-17T08:41:54.011Z,33.69
2023-08-17T08:46:59.608Z,34.61
2023-08-17T08:52:05.237Z,35.00
2023-08-17T08:57:14.267Z,34.77
2023-08-17T09:02:18.675Z,34.91
2023-08-17T09:07:23.418Z,35.41
2023-08-17T09:12:39.652Z,35.93
2023-08-17T09:17:49.005Z,35.82
2023-08-17T09:22:54.975Z,35.97
2023-08-17T09:27:59.371Z,37.17
2023-08-17T09:33:04.745Z,38.60
2023-08-17T09:38:10.029Z,39.57
2023-08-17T09:43:14.793Z,40.38
2023-08-17T09:48:19.592Z,40.69
2023-08-17T09:53:24.288Z,40.57
2023-08-17T09:58:31.272Z,39.98
2023-08-17T10:03:36.861Z,40.30
2023-08-17T10:08:44.468Z,40.71
2023-08-17T10:13:53.049Z,41.16
2023-08-17T10:19:02.970Z,41.22
2023-08-17T10:24:08.586Z,41.24
2023-08-17T10:29:16.505Z,40.91
2023-08-17T10:34:21.817Z,40.55
2023-08-17T10:39:29.147Z,39.93
2023-08-17T10:44:44.900Z,40.13
2023-08-17T10:49:51.010Z,40.35
2023-08-17T10:54:56.509Z,40.99
2023-08-17T11:00:29.110Z,41.26
2023-08-17T11:05:41.797Z,41.48
2023-08-17T11:10:57.816Z,41.62
2023-08-17T11:16:04.015Z,41.66
2023-08-17T11:21:11.349Z,42.08
2023-08-17T11:26:18.261Z,42.26
2023-08-17T11:31:22.647Z,42.04
2023-08-17T11:36:26.905Z,41.88
2023-08-17T11:41:31.278Z,41.60
2023-08-17T11:46:35.585Z,41.56
2023-08-17T11:51:43.313Z,41.32
2023-08-17T11:56:47.853Z,40.60
2023-08-17T12:01:52.451Z,39.59
2023-08-17T12:06:56.996Z,38.50
2023-08-17T12:12:01.762Z,37.93
2023-08-17T12:17:06.117Z,37.53
2023-08-17T12:22:10.502Z,37.41
2023-08-17T12:27:14.751Z,37.60
2023-08-17T12:32:20.770Z,37.72
2023-08-17T12:37:25.008Z,38.04
2023-08-17T12:42:29.530Z,38.13
2023-08-17T12:47:35.527Z,37.90
2023-08-17T12:52:40.005Z,37.82
2023-08-17T12:57:44.366Z,37.80
2023-08-17T13:02:52.531Z,37.25
2023-08-17T13:07:56.927Z,36.80
2023-08-17T13:13:01.179Z,36.31
2023-08-17T13:18:06.024Z,36.06
2023-08-17T13:23:10.622Z,36.20
2023-08-17T13:28:14.909Z,36.27
2023-08-17T13:33:19.222Z,36.16
2023-08-17T13:38:23.478Z,36.06
2023-08-17T13:43:27.776Z,35.85
2023-08-17T13:48:31.992Z,35.87
2023-08-17T13:53:36.078Z,36.00
2023-08-17T13:58:40.205Z,36.14
2023-08-17T14:03:44.285Z,36.16
2023-08-17T14:08:48.512Z,35.96
2023-08-17T14:13:52.632Z,35.90
2023-08-17T14:18:56.841Z,35.81
2023-08-17T14:24:00.999Z,35.68
2023-08-17T14:29:05.195Z,35.54
2023-08-17T14:34:09.211Z,35.37
2023-08-17T14:39:13.760Z,35.11
2023-08-17T14:44:19.065Z,34.94
2023-08-17T14:49:26.584Z,34.79
2023-08-17T14:54:33.353Z,34.73
2023-08-17T14:59:38.247Z,34.58
2023-08-17T15:04:42.331Z,34.47
2023-08-17T15:09:46.907Z,34.30
2023-08-17T15:14:51.048Z,34.09
2023-08-17T15:19:55.122Z,34.06
2023-08-17T15:24:59.171Z,34.00
2023-08-17T15:30:03.445Z,33.95
2023-08-17T15:35:08.616Z,33.91
2023-08-17T15:40:12.971Z,33.89
2023-08-17T15:45:19.170Z,33.77
2023-08-17T15:50:23.290Z,33.57
2023-08-17T15:55:27.438Z,33.39
2023-08-17T16:00:31.554Z,33.27
2023-08-17T16:05:35.803Z,33.10
2023-08-17T16:10:40.001Z,32.96
2023-08-17T16:15:44.246Z,32.79
2023-08-17T16:20:48.872Z,32.50
2023-08-17T16:34:09.105Z,31.56
2023-08-17T16:39:14.025Z,31.32
2023-08-17T16:44:18.890Z,31.17
2023-08-17T16:49:29.733Z,31.05
2023-08-17T16:54:35.633Z,30.79
2023-08-17T16:59:40.183Z,30.44
2023-08-17T17:04:44.558Z,30.03
2023-08-17T17:09:49.804Z,29.88
2023-08-17T17:14:54.822Z,29.69
2023-08-17T17:19:58.968Z,29.45
2023-08-17T17:25:05.235Z,29.16
2023-08-17T17:30:10.674Z,28.85
2023-08-17T17:35:14.768Z,28.57
2023-08-17T17:40:18.924Z,28.29
2023-08-17T17:46:52.211Z,27.96
2023-08-17T17:51:57.659Z,27.65
2023-08-17T17:57:03.437Z,27.33
2023-08-17T18:02:09.643Z,26.97
2023-08-17T18:07:15.120Z,26.60
2023-08-17T18:12:20.823Z,26.20
2023-08-17T18:17:26.603Z,25.84
2023-08-17T18:22:32.407Z,25.50
2023-08-17T18:27:40.663Z,25.28
2023-08-17T18:32:46.576Z,25.16
2023-08-17T18:37:52.314Z,25.03
2023-08-17T18:42:58.326Z,24.98
2023-08-17T18:48:04.335Z,24.93
2023-08-17T18:53:10.639Z,24.88
2023-08-17T18:58:19.369Z,24.81
2023-08-17T19:03:27.619Z,24.70
2023-08-17T19:08:33.312Z,24.57
2023-08-17T19:13:38.781Z,24.48
2023-08-17T19:18:44.360Z,24.37
2023-08-17T19:23:50.175Z,24.26
2023-08-17T19:28:55.694Z,24.14
2023-08-17T19:34:01.267Z,24.04
2023-08-17T19:39:08.698Z,23.93
2023-08-17T19:44:14.473Z,23.85
2023-08-17T19:49:21.474Z,23.79
2023-08-17T19:54:27.092Z,23.78
2023-08-17T19:59:32.852Z,23.78
2023-08-17T20:04:41.362Z,23.72
2023-08-17T20:09:46.994Z,23.69
2023-08-17T20:14:53.076Z,23.74
2023-08-17T20:19:58.983Z,23.86
2023-08-17T20:25:06.189Z,23.96
2023-08-17T20:30:13.429Z,24.02
2023-08-17T20:35:19.563Z,24.02
2023-08-17T20:40:25.151Z,24.02
2023-08-17T20:45:30.692Z,24.00
2023-08-17T20:50:39.213Z,23.98
2023-08-17T20:55:45.486Z,23.98
2023-08-17T21:00:51.541Z,23.95
2023-08-17T21:06:04.319Z,23.93
2023-08-17T21:11:10.146Z,23.91
2023-08-17T21:16:15.753Z,23.90
2023-08-17T21:21:21.373Z,23.90
2023-08-17T21:26:26.873Z,23.88
2023-08-17T21:31:34.150Z,23.93
2023-08-17T21:36:39.998Z,23.92
2023-08-17T21:41:45.565Z,23.89
2023-08-17T21:46:51.155Z,23.88
2023-08-17T21:51:56.862Z,23.85
2023-08-17T21:57:02.721Z,23.81
2023-08-17T22:02:09.880Z,23.77
2023-08-17T22:07:16.587Z,23.72
2023-08-17T22:12:22.429Z,23.66
2023-08-17T22:17:28.390Z,23.59
2023-08-17T22:22:34.716Z,23.50
2023-08-17T22:27:40.278Z,23.38
2023-08-17T22:32:46.038Z,23.23
2023-08-17T22:37:52.141Z,23.12
2023-08-17T22:42:58.351Z,23.00
2023-08-17T22:48:04.481Z,22.83
2023-08-17T22:53:10.526Z,22.73
2023-08-17T22:58:16.250Z,22.72
2023-08-17T23:03:23.084Z,22.72
2023-08-17T23:08:30.299Z,22.73
2023-08-17T23:13:36.026Z,22.75
2023-08-17T23:18:41.846Z,22.71
2023-08-17T23:23:47.328Z,22.60
2023-08-17T23:28:52.933Z,22.44
2023-08-17T23:33:59.012Z,22.38
2023-08-17T23:39:05.075Z,22.37
2023-08-17T23:44:18.882Z,22.31
2023-08-17T23:49:24.542Z,22.17
2023-08-17T23:54:39.208Z,22.07
2023-08-17T23:59:45.155Z,21.93
